sensor_id;sensor_type;location;lat;lon;timestamp;temperature;humidity
65207;SHT31;58477;48.072;11.970;2023-04-15T00:01:23;4.43;94.83
65207;SHT31;58477;48.072;11.970;2023-04-15T00:03:53;4.47;94.89
65207;SHT31;58477;48.072;11.970;2023-04-15T00:06:20;4.43;94.62
65207;SHT31;58477;48.072;11.970;2023-04-15T00:08:46;4.43;94.87
65207;SHT31;58477;48.072;11.970;2023-04-15T00:11:11;4.45;94.31
65207;SHT31;58477;48.072;11.970;2023-04-15T00:13:38;4.49;94.34
65207;SHT31;58477;48.072;11.970;2023-04-15T00:16:05;4.50;94.12
65207;SHT31;58477;48.072;11.970;2023-04-15T00:18:31;4.50;94.27
65207;SHT31;58477;48.072;11.970;2023-04-15T00:20:56;4.53;94.25
65207;SHT31;58477;48.072;11.970;2023-04-15T00:23:21;4.49;94.35
65207;SHT31;58477;48.072;11.970;2023-04-15T00:25:47;4.49;94.40
65207;SHT31;58477;48.072;11.970;2023-04-15T00:28:13;4.50;94.14
65207;SHT31;58477;48.072;11.970;2023-04-15T00:30:38;4.53;94.37
65207;SHT31;58477;48.072;11.970;2023-04-15T00:33:04;4.52;94.83
65207;SHT31;58477;48.072;11.970;2023-04-15T00:35:29;4.50;94.80
65207;SHT31;58477;48.072;11.970;2023-04-15T00:37:58;4.53;94.33
65207;SHT31;58477;48.072;11.970;2023-04-15T00:40:24;4.57;94.03
65207;SHT31;58477;48.072;11.970;2023-04-15T00:42:50;4.59;94.24
65207;SHT31;58477;48.072;11.970;2023-04-15T00:45:16;4.59;94.05
65207;SHT31;58477;48.072;11.970;2023-04-15T00:47:43;4.59;94.16
65207;SHT31;58477;48.072;11.970;2023-04-15T00:50:09;4.60;93.99
65207;SHT31;58477;48.072;11.970;2023-04-15T00:52:35;4.61;93.88
65207;SHT31;58477;48.072;11.970;2023-04-15T00:55:01;4.63;94.09
65207;SHT31;58477;48.072;11.970;2023-04-15T00:57:28;4.60;94.15
65207;SHT31;58477;48.072;11.970;2023-04-15T00:59:55;4.60;94.29
65207;SHT31;58477;48.072;11.970;2023-04-15T01:02:22;4.56;94.37
65207;SHT31;58477;48.072;11.970;2023-04-15T01:04:48;4.54;94.16
65207;SHT31;58477;48.072;11.970;2023-04-15T01:07:13;4.52;94.37
65207;SHT31;58477;48.072;11.970;2023-04-15T01:09:39;4.53;94.38
65207;SHT31;58477;48.072;11.970;2023-04-15T01:12:06;4.52;94.45
65207;SHT31;58477;48.072;11.970;2023-04-15T01:14:32;4.50;94.42
65207;SHT31;58477;48.072;11.970;2023-04-15T01:16:58;4.47;94.90
65207;SHT31;58477;48.072;11.970;2023-04-15T01:19:23;4.46;94.86
65207;SHT31;58477;48.072;11.970;2023-04-15T01:21:49;4.47;94.84
65207;SHT31;58477;48.072;11.970;2023-04-15T01:24:17;4.42;94.65
65207;SHT31;58477;48.072;11.970;2023-04-15T01:26:42;4.43;94.96
65207;SHT31;58477;48.072;11.970;2023-04-15T01:29:08;4.46;94.84
65207;SHT31;58477;48.072;11.970;2023-04-15T01:31:33;4.46;94.70
65207;SHT31;58477;48.072;11.970;2023-04-15T01:33:59;4.46;94.87
65207;SHT31;58477;48.072;11.970;2023-04-15T01:36:25;4.46;94.61
65207;SHT31;58477;48.072;11.970;2023-04-15T01:38:52;4.47;94.85
65207;SHT31;58477;48.072;11.970;2023-04-15T01:41:27;4.47;94.72
65207;SHT31;58477;48.072;11.970;2023-04-15T01:43:53;4.43;94.82
65207;SHT31;58477;48.072;11.970;2023-04-15T01:46:19;4.43;94.89
65207;SHT31;58477;48.072;11.970;2023-04-15T01:48:44;4.45;94.47
65207;SHT31;58477;48.072;11.970;2023-04-15T01:51:10;4.46;94.54
65207;SHT31;58477;48.072;11.970;2023-04-15T01:53:36;4.43;94.88
65207;SHT31;58477;48.072;11.970;2023-04-15T01:56:01;4.42;94.96
65207;SHT31;58477;48.072;11.970;2023-04-15T01:58:27;4.37;94.71
65207;SHT31;58477;48.072;11.970;2023-04-15T02:00:53;4.37;94.76
65207;SHT31;58477;48.072;11.970;2023-04-15T02:03:18;4.42;94.72
65207;SHT31;58477;48.072;11.970;2023-04-15T02:05:43;4.42;94.86
65207;SHT31;58477;48.072;11.970;2023-04-15T02:08:09;4.43;94.52
65207;SHT31;58477;48.072;11.970;2023-04-15T02:10:37;4.37;94.81
65207;SHT31;58477;48.072;11.970;2023-04-15T02:13:04;4.42;94.63
65207;SHT31;58477;48.072;11.970;2023-04-15T02:15:29;4.46;94.79
65207;SHT31;58477;48.072;11.970;2023-04-15T02:17:54;4.40;94.72
65207;SHT31;58477;48.072;11.970;2023-04-15T02:20:20;4.43;94.77
65207;SHT31;58477;48.072;11.970;2023-04-15T02:22:46;4.42;94.95
65207;SHT31;58477;48.072;11.970;2023-04-15T02:25:14;4.40;94.50
65207;SHT31;58477;48.072;11.970;2023-04-15T02:27:41;4.39;94.77
65207;SHT31;58477;48.072;11.970;2023-04-15T02:30:08;4.39;94.76
65207;SHT31;58477;48.072;11.970;2023-04-15T02:32:33;4.40;94.75
65207;SHT31;58477;48.072;11.970;2023-04-15T02:35:06;4.42;94.56
65207;SHT31;58477;48.072;11.970;2023-04-15T02:37:35;4.43;94.42
65207;SHT31;58477;48.072;11.970;2023-04-15T02:40:07;4.43;94.34
65207;SHT31;58477;48.072;11.970;2023-04-15T02:42:33;4.47;94.30
65207;SHT31;58477;48.072;11.970;2023-04-15T02:45:00;4.47;94.19
65207;SHT31;58477;48.072;11.970;2023-04-15T02:47:29;4.43;94.49
65207;SHT31;58477;48.072;11.970;2023-04-15T02:49:55;4.45;94.79
65207;SHT31;58477;48.072;11.970;2023-04-15T02:52:23;4.46;94.38
65207;SHT31;58477;48.072;11.970;2023-04-15T02:54:48;4.42;94.64
65207;SHT31;58477;48.072;11.970;2023-04-15T02:57:14;4.43;94.65
65207;SHT31;58477;48.072;11.970;2023-04-15T02:59:39;4.43;94.57
65207;SHT31;58477;48.072;11.970;2023-04-15T03:02:05;4.45;94.56
65207;SHT31;58477;48.072;11.970;2023-04-15T03:04:32;4.45;94.55
65207;SHT31;58477;48.072;11.970;2023-04-15T03:06:57;4.46;94.40
65207;SHT31;58477;48.072;11.970;2023-04-15T03:09:23;4.50;94.33
65207;SHT31;58477;48.072;11.970;2023-04-15T03:11:49;4.46;94.52
65207;SHT31;58477;48.072;11.970;2023-04-15T03:14:18;4.49;94.20
65207;SHT31;58477;48.072;11.970;2023-04-15T03:16:45;4.56;93.71
65207;SHT31;58477;48.072;11.970;2023-04-15T03:19:12;4.53;93.94
65207;SHT31;58477;48.072;11.970;2023-04-15T03:21:40;4.57;94.34
65207;SHT31;58477;48.072;11.970;2023-04-15T03:24:07;4.56;93.95
65207;SHT31;58477;48.072;11.970;2023-04-15T03:26:32;4.57;93.97
65207;SHT31;58477;48.072;11.970;2023-04-15T03:29:01;4.57;94.07
65207;SHT31;58477;48.072;11.970;2023-04-15T03:31:27;4.61;94.07
65207;SHT31;58477;48.072;11.970;2023-04-15T03:33:52;4.60;93.94
65207;SHT31;58477;48.072;11.970;2023-04-15T03:36:18;4.60;94.20
65207;SHT31;58477;48.072;11.970;2023-04-15T03:38:43;4.56;93.97
65207;SHT31;58477;48.072;11.970;2023-04-15T03:41:09;4.56;94.03
65207;SHT31;58477;48.072;11.970;2023-04-15T03:43:34;4.53;94.40
65207;SHT31;58477;48.072;11.970;2023-04-15T03:46:00;4.49;94.32
65207;SHT31;58477;48.072;11.970;2023-04-15T03:48:26;4.50;94.19
65207;SHT31;58477;48.072;11.970;2023-04-15T03:50:51;4.49;94.08
65207;SHT31;58477;48.072;11.970;2023-04-15T03:53:17;4.45;94.39
65207;SHT31;58477;48.072;11.970;2023-04-15T03:55:43;4.45;94.39
65207;SHT31;58477;48.072;11.970;2023-04-15T03:58:08;4.46;94.51
65207;SHT31;58477;48.072;11.970;2023-04-15T04:00:37;4.46;94.41
65207;SHT31;58477;48.072;11.970;2023-04-15T04:03:02;4.43;94.57
65207;SHT31;58477;48.072;11.970;2023-04-15T04:05:28;4.43;94.54
65207;SHT31;58477;48.072;11.970;2023-04-15T04:07:54;4.43;94.49
65207;SHT31;58477;48.072;11.970;2023-04-15T04:10:20;4.42;94.62
65207;SHT31;58477;48.072;11.970;2023-04-15T04:12:45;4.42;94.61
65207;SHT31;58477;48.072;11.970;2023-04-15T04:15:11;4.43;94.68
65207;SHT31;58477;48.072;11.970;2023-04-15T04:17:36;4.39;94.78
65207;SHT31;58477;48.072;11.970;2023-04-15T04:20:02;4.37;95.05
65207;SHT31;58477;48.072;11.970;2023-04-15T04:22:27;4.35;95.05
65207;SHT31;58477;48.072;11.970;2023-04-15T04:24:52;4.35;94.96
65207;SHT31;58477;48.072;11.970;2023-04-15T04:27:18;4.29;95.17
65207;SHT31;58477;48.072;11.970;2023-04-15T04:29:43;4.32;94.95
65207;SHT31;58477;48.072;11.970;2023-04-15T04:32:09;4.28;95.11
65207;SHT31;58477;48.072;11.970;2023-04-15T04:34:34;4.23;95.23
65207;SHT31;58477;48.072;11.970;2023-04-15T04:37:00;4.20;95.32
65207;SHT31;58477;48.072;11.970;2023-04-15T04:39:26;4.26;95.26
65207;SHT31;58477;48.072;11.970;2023-04-15T04:41:51;4.29;94.96
65207;SHT31;58477;48.072;11.970;2023-04-15T04:44:17;4.28;94.89
65207;SHT31;58477;48.072;11.970;2023-04-15T04:46:42;4.29;94.84
65207;SHT31;58477;48.072;11.970;2023-04-15T04:49:08;4.30;94.59
65207;SHT31;58477;48.072;11.970;2023-04-15T04:51:33;4.30;94.56
65207;SHT31;58477;48.072;11.970;2023-04-15T04:53:59;4.35;94.09
65207;SHT31;58477;48.072;11.970;2023-04-15T04:56:24;4.35;93.71
65207;SHT31;58477;48.072;11.970;2023-04-15T04:58:49;4.37;93.87
65207;SHT31;58477;48.072;11.970;2023-04-15T05:01:16;4.36;94.10
65207;SHT31;58477;48.072;11.970;2023-04-15T05:03:41;4.39;93.76
65207;SHT31;58477;48.072;11.970;2023-04-15T05:06:06;4.37;93.46
65207;SHT31;58477;48.072;11.970;2023-04-15T05:08:33;4.40;93.09
65207;SHT31;58477;48.072;11.970;2023-04-15T05:10:58;4.40;93.14
65207;SHT31;58477;48.072;11.970;2023-04-15T05:13:24;4.43;93.26
65207;SHT31;58477;48.072;11.970;2023-04-15T05:15:49;4.43;92.80
65207;SHT31;58477;48.072;11.970;2023-04-15T05:18:15;4.46;93.11
65207;SHT31;58477;48.072;11.970;2023-04-15T05:20:41;4.45;92.81
65207;SHT31;58477;48.072;11.970;2023-04-15T05:23:06;4.40;93.22
65207;SHT31;58477;48.072;11.970;2023-04-15T05:25:32;4.45;92.96
65207;SHT31;58477;48.072;11.970;2023-04-15T05:27:57;4.46;92.77
65207;SHT31;58477;48.072;11.970;2023-04-15T05:30:23;4.49;92.55
65207;SHT31;58477;48.072;11.970;2023-04-15T05:32:48;4.54;92.42
65207;SHT31;58477;48.072;11.970;2023-04-15T05:35:14;4.57;92.16
65207;SHT31;58477;48.072;11.970;2023-04-15T05:37:39;4.59;91.96
65207;SHT31;58477;48.072;11.970;2023-04-15T05:40:05;4.59;91.56
65207;SHT31;58477;48.072;11.970;2023-04-15T05:42:30;4.59;91.85
65207;SHT31;58477;48.072;11.970;2023-04-15T05:44:56;4.61;91.67
65207;SHT31;58477;48.072;11.970;2023-04-15T05:47:21;4.67;91.53
65207;SHT31;58477;48.072;11.970;2023-04-15T05:49:47;4.71;91.71
65207;SHT31;58477;48.072;11.970;2023-04-15T05:52:12;4.77;91.62
65207;SHT31;58477;48.072;11.970;2023-04-15T05:54:37;4.76;91.16
65207;SHT31;58477;48.072;11.970;2023-04-15T05:57:03;4.77;91.09
65207;SHT31;58477;48.072;11.970;2023-04-15T05:59:28;4.79;91.00
65207;SHT31;58477;48.072;11.970;2023-04-15T06:01:54;4.77;91.43
65207;SHT31;58477;48.072;11.970;2023-04-15T06:04:19;4.85;91.61
65207;SHT31;58477;48.072;11.970;2023-04-15T06:06:45;4.84;91.13
65207;SHT31;58477;48.072;11.970;2023-04-15T06:09:10;4.92;91.59
65207;SHT31;58477;48.072;11.970;2023-04-15T06:11:36;4.95;90.81
65207;SHT31;58477;48.072;11.970;2023-04-15T06:14:01;4.94;90.66
65207;SHT31;58477;48.072;11.970;2023-04-15T06:16:27;4.94;90.69
65207;SHT31;58477;48.072;11.970;2023-04-15T06:18:52;4.97;90.41
65207;SHT31;58477;48.072;11.970;2023-04-15T06:21:18;4.97;90.15
65207;SHT31;58477;48.072;11.970;2023-04-15T06:23:43;5.01;91.09
65207;SHT31;58477;48.072;11.970;2023-04-15T06:26:09;5.04;90.89
65207;SHT31;58477;48.072;11.970;2023-04-15T06:28:34;5.17;91.09
65207;SHT31;58477;48.072;11.970;2023-04-15T06:31:00;5.10;90.00
65207;SHT31;58477;48.072;11.970;2023-04-15T06:33:26;5.14;90.27
65207;SHT31;58477;48.072;11.970;2023-04-15T06:35:51;5.12;89.83
65207;SHT31;58477;48.072;11.970;2023-04-15T06:38:17;5.15;89.48
65207;SHT31;58477;48.072;11.970;2023-04-15T06:40:42;5.17;89.21
65207;SHT31;58477;48.072;11.970;2023-04-15T06:43:08;5.30;89.83
65207;SHT31;58477;48.072;11.970;2023-04-15T06:45:34;5.31;89.17
65207;SHT31;58477;48.072;11.970;2023-04-15T06:47:59;5.46;89.14
65207;SHT31;58477;48.072;11.970;2023-04-15T06:50:25;5.52;88.89
65207;SHT31;58477;48.072;11.970;2023-04-15T06:52:52;5.63;89.29
65207;SHT31;58477;48.072;11.970;2023-04-15T06:55:18;5.67;87.91
65207;SHT31;58477;48.072;11.970;2023-04-15T06:57:43;5.80;87.61
65207;SHT31;58477;48.072;11.970;2023-04-15T07:00:09;6.02;87.28
65207;SHT31;58477;48.072;11.970;2023-04-15T07:02:36;6.05;87.44
65207;SHT31;58477;48.072;11.970;2023-04-15T07:05:01;6.14;87.13
65207;SHT31;58477;48.072;11.970;2023-04-15T07:07:27;5.97;87.50
65207;SHT31;58477;48.072;11.970;2023-04-15T07:09:52;5.87;87.44
65207;SHT31;58477;48.072;11.970;2023-04-15T07:12:18;5.89;87.97
65207;SHT31;58477;48.072;11.970;2023-04-15T07:14:43;5.89;87.38
65207;SHT31;58477;48.072;11.970;2023-04-15T07:17:09;5.99;87.52
65207;SHT31;58477;48.072;11.970;2023-04-15T07:19:35;5.89;87.23
65207;SHT31;58477;48.072;11.970;2023-04-15T07:22:01;5.93;87.57
65207;SHT31;58477;48.072;11.970;2023-04-15T07:24:26;6.03;87.28
65207;SHT31;58477;48.072;11.970;2023-04-15T07:26:55;6.07;88.03
65207;SHT31;58477;48.072;11.970;2023-04-15T07:29:24;5.95;87.09
65207;SHT31;58477;48.072;11.970;2023-04-15T07:31:49;5.80;87.38
65207;SHT31;58477;48.072;11.970;2023-04-15T07:34:15;5.76;87.02
65207;SHT31;58477;48.072;11.970;2023-04-15T07:36:41;5.73;87.35
65207;SHT31;58477;48.072;11.970;2023-04-15T07:39:07;5.73;87.03
65207;SHT31;58477;48.072;11.970;2023-04-15T07:41:32;5.77;87.76
65207;SHT31;58477;48.072;11.970;2023-04-15T07:43:58;5.72;87.44
65207;SHT31;58477;48.072;11.970;2023-04-15T07:46:23;5.76;88.60
65207;SHT31;58477;48.072;11.970;2023-04-15T07:48:51;5.69;88.22
65207;SHT31;58477;48.072;11.970;2023-04-15T07:51:17;5.63;88.54
65207;SHT31;58477;48.072;11.970;2023-04-15T07:53:43;5.49;90.16
65207;SHT31;58477;48.072;11.970;2023-04-15T07:56:09;5.27;90.85
65207;SHT31;58477;48.072;11.970;2023-04-15T07:58:35;5.12;91.66
65207;SHT31;58477;48.072;11.970;2023-04-15T08:01:01;5.02;91.05
65207;SHT31;58477;48.072;11.970;2023-04-15T08:03:26;5.00;92.36
65207;SHT31;58477;48.072;11.970;2023-04-15T08:05:52;5.02;92.72
65207;SHT31;58477;48.072;11.970;2023-04-15T08:08:18;5.00;91.51
65207;SHT31;58477;48.072;11.970;2023-04-15T08:10:43;4.98;91.92
65207;SHT31;58477;48.072;11.970;2023-04-15T08:13:09;5.04;92.93
65207;SHT31;58477;48.072;11.970;2023-04-15T08:15:35;5.11;91.71
65207;SHT31;58477;48.072;11.970;2023-04-15T08:18:00;5.18;91.64
65207;SHT31;58477;48.072;11.970;2023-04-15T08:20:26;5.39;92.52
65207;SHT31;58477;48.072;11.970;2023-04-15T08:22:51;5.44;91.64
65207;SHT31;58477;48.072;11.970;2023-04-15T08:25:18;5.58;91.72
65207;SHT31;58477;48.072;11.970;2023-04-15T08:27:44;5.73;92.05
65207;SHT31;58477;48.072;11.970;2023-04-15T08:30:10;5.87;90.83
65207;SHT31;58477;48.072;11.970;2023-04-15T08:32:36;5.89;90.96
65207;SHT31;58477;48.072;11.970;2023-04-15T08:35:02;6.03;90.65
65207;SHT31;58477;48.072;11.970;2023-04-15T08:37:27;6.27;89.55
65207;SHT31;58477;48.072;11.970;2023-04-15T08:39:52;6.40;89.73
65207;SHT31;58477;48.072;11.970;2023-04-15T08:42:22;6.45;89.09
65207;SHT31;58477;48.072;11.970;2023-04-15T08:44:49;6.44;89.08
65207;SHT31;58477;48.072;11.970;2023-04-15T08:47:17;6.55;89.84
65207;SHT31;58477;48.072;11.970;2023-04-15T08:49:45;6.63;89.22
65207;SHT31;58477;48.072;11.970;2023-04-15T08:52:12;6.70;88.52
65207;SHT31;58477;48.072;11.970;2023-04-15T08:54:38;6.84;88.28
65207;SHT31;58477;48.072;11.970;2023-04-15T08:57:04;6.84;88.06
65207;SHT31;58477;48.072;11.970;2023-04-15T08:59:29;6.99;88.87
65207;SHT31;58477;48.072;11.970;2023-04-15T09:01:56;7.09;89.79
65207;SHT31;58477;48.072;11.970;2023-04-15T09:04:22;7.29;89.30
65207;SHT31;58477;48.072;11.970;2023-04-15T09:06:47;7.42;88.28
65207;SHT31;58477;48.072;11.970;2023-04-15T09:09:13;7.15;86.63
65207;SHT31;58477;48.072;11.970;2023-04-15T09:11:38;7.49;88.10
65207;SHT31;58477;48.072;11.970;2023-04-15T09:14:04;7.60;87.17
65207;SHT31;58477;48.072;11.970;2023-04-15T09:16:30;7.70;87.86
65207;SHT31;58477;48.072;11.970;2023-04-15T09:18:56;7.55;86.59
65207;SHT31;58477;48.072;11.970;2023-04-15T09:21:21;7.32;86.80
65207;SHT31;58477;48.072;11.970;2023-04-15T09:23:58;7.30;87.78
65207;SHT31;58477;48.072;11.970;2023-04-15T09:29:06;7.11;88.23
65207;SHT31;58477;48.072;11.970;2023-04-15T09:31:32;6.99;89.82
65207;SHT31;58477;48.072;11.970;2023-04-15T09:33:58;6.96;90.23
65207;SHT31;58477;48.072;11.970;2023-04-15T09:36:23;6.87;90.11
65207;SHT31;58477;48.072;11.970;2023-04-15T09:38:57;6.98;90.36
65207;SHT31;58477;48.072;11.970;2023-04-15T09:41:24;6.77;86.94
65207;SHT31;58477;48.072;11.970;2023-04-15T09:43:50;6.95;88.56
65207;SHT31;58477;48.072;11.970;2023-04-15T09:46:15;7.01;90.79
65207;SHT31;58477;48.072;11.970;2023-04-15T09:48:41;6.99;87.55
65207;SHT31;58477;48.072;11.970;2023-04-15T09:51:06;6.96;87.99
65207;SHT31;58477;48.072;11.970;2023-04-15T09:53:34;6.95;89.50
65207;SHT31;58477;48.072;11.970;2023-04-15T09:56:00;7.01;88.59
65207;SHT31;58477;48.072;11.970;2023-04-15T09:58:30;7.12;88.87
65207;SHT31;58477;48.072;11.970;2023-04-15T10:00:57;7.08;88.68
65207;SHT31;58477;48.072;11.970;2023-04-15T10:03:28;7.15;89.11
65207;SHT31;58477;48.072;11.970;2023-04-15T10:05:55;7.22;89.70
65207;SHT31;58477;48.072;11.970;2023-04-15T10:08:22;7.32;88.39
65207;SHT31;58477;48.072;11.970;2023-04-15T10:10:49;7.29;87.83
65207;SHT31;58477;48.072;11.970;2023-04-15T10:13:24;7.23;88.79
65207;SHT31;58477;48.072;11.970;2023-04-15T10:15:54;7.22;87.88
65207;SHT31;58477;48.072;11.970;2023-04-15T10:18:22;7.12;87.46
65207;SHT31;58477;48.072;11.970;2023-04-15T10:20:49;7.22;89.01
65207;SHT31;58477;48.072;11.970;2023-04-15T10:23:15;7.14;88.89
65207;SHT31;58477;48.072;11.970;2023-04-15T10:25:42;7.28;88.77
65207;SHT31;58477;48.072;11.970;2023-04-15T10:28:07;7.38;88.22
65207;SHT31;58477;48.072;11.970;2023-04-15T10:30:33;7.39;87.07
65207;SHT31;58477;48.072;11.970;2023-04-15T10:33:02;7.48;88.14
65207;SHT31;58477;48.072;11.970;2023-04-15T10:35:29;7.45;87.56
65207;SHT31;58477;48.072;11.970;2023-04-15T10:37:55;7.42;87.63
65207;SHT31;58477;48.072;11.970;2023-04-15T10:40:30;7.36;88.84
65207;SHT31;58477;48.072;11.970;2023-04-15T10:42:58;7.56;87.82
65207;SHT31;58477;48.072;11.970;2023-04-15T10:45:33;7.82;87.68
65207;SHT31;58477;48.072;11.970;2023-04-15T10:48:02;7.82;87.08
65207;SHT31;58477;48.072;11.970;2023-04-15T10:50:29;7.84;86.96
65207;SHT31;58477;48.072;11.970;2023-04-15T10:52:56;7.76;86.79
65207;SHT31;58477;48.072;11.970;2023-04-15T10:55:23;7.70;87.73
65207;SHT31;58477;48.072;11.970;2023-04-15T10:57:53;7.86;87.52
65207;SHT31;58477;48.072;11.970;2023-04-15T11:00:23;7.98;87.45
65207;SHT31;58477;48.072;11.970;2023-04-15T11:02:57;8.05;86.65
65207;SHT31;58477;48.072;11.970;2023-04-15T11:08:04;8.04;86.90
65207;SHT31;58477;48.072;11.970;2023-04-15T11:13:14;8.27;86.18
65207;SHT31;58477;48.072;11.970;2023-04-15T11:15:44;8.28;86.80
65207;SHT31;58477;48.072;11.970;2023-04-15T11:18:21;8.21;86.29
65207;SHT31;58477;48.072;11.970;2023-04-15T11:20:52;8.11;86.00
65207;SHT31;58477;48.072;11.970;2023-04-15T11:23:41;8.07;86.67
65207;SHT31;58477;48.072;11.970;2023-04-15T11:26:12;7.95;85.44
65207;SHT31;58477;48.072;11.970;2023-04-15T11:28:39;7.90;85.40
65207;SHT31;58477;48.072;11.970;2023-04-15T11:31:07;7.89;85.48
65207;SHT31;58477;48.072;11.970;2023-04-15T11:33:34;8.01;84.92
65207;SHT31;58477;48.072;11.970;2023-04-15T11:36:00;8.07;84.64
65207;SHT31;58477;48.072;11.970;2023-04-15T11:38:26;8.17;83.57
65207;SHT31;58477;48.072;11.970;2023-04-15T11:40:52;8.14;84.89
65207;SHT31;58477;48.072;11.970;2023-04-15T11:43:19;8.27;84.35
65207;SHT31;58477;48.072;11.970;2023-04-15T11:45:59;8.45;83.99
65207;SHT31;58477;48.072;11.970;2023-04-15T11:48:28;8.54;84.42
65207;SHT31;58477;48.072;11.970;2023-04-15T11:50:56;8.45;82.18
65207;SHT31;58477;48.072;11.970;2023-04-15T11:53:22;8.34;82.34
65207;SHT31;58477;48.072;11.970;2023-04-15T11:55:51;8.47;83.11
65207;SHT31;58477;48.072;11.970;2023-04-15T11:58:22;8.35;81.86
65207;SHT31;58477;48.072;11.970;2023-04-15T12:00:52;8.47;82.94
65207;SHT31;58477;48.072;11.970;2023-04-15T12:03:26;8.52;82.25
65207;SHT31;58477;48.072;11.970;2023-04-15T12:06:04;8.45;81.25
65207;SHT31;58477;48.072;11.970;2023-04-15T12:11:45;8.55;82.62
65207;SHT31;58477;48.072;11.970;2023-04-15T12:16:47;8.62;82.00
65207;SHT31;58477;48.072;11.970;2023-04-15T12:19:24;8.59;81.99
65207;SHT31;58477;48.072;11.970;2023-04-15T12:21:52;8.44;81.52
65207;SHT31;58477;48.072;11.970;2023-04-15T12:24:21;8.38;82.03
65207;SHT31;58477;48.072;11.970;2023-04-15T12:26:52;8.25;82.02
65207;SHT31;58477;48.072;11.970;2023-04-15T12:29:18;8.27;81.67
65207;SHT31;58477;48.072;11.970;2023-04-15T12:31:49;8.34;82.71
65207;SHT31;58477;48.072;11.970;2023-04-15T12:34:16;8.31;82.41
65207;SHT31;58477;48.072;11.970;2023-04-15T12:36:42;8.20;82.32
65207;SHT31;58477;48.072;11.970;2023-04-15T12:39:07;8.15;82.16
65207;SHT31;58477;48.072;11.970;2023-04-15T12:41:33;8.11;83.11
65207;SHT31;58477;48.072;11.970;2023-04-15T12:43:59;7.98;83.36
65207;SHT31;58477;48.072;11.970;2023-04-15T12:46:25;7.94;84.24
65207;SHT31;58477;48.072;11.970;2023-04-15T12:48:51;7.94;84.23
65207;SHT31;58477;48.072;11.970;2023-04-15T12:51:17;7.93;84.61
65207;SHT31;58477;48.072;11.970;2023-04-15T12:53:43;7.93;84.24
65207;SHT31;58477;48.072;11.970;2023-04-15T12:56:08;7.90;83.26
65207;SHT31;58477;48.072;11.970;2023-04-15T12:58:34;7.93;84.50
65207;SHT31;58477;48.072;11.970;2023-04-15T13:01:00;8.01;85.08
65207;SHT31;58477;48.072;11.970;2023-04-15T13:03:25;8.15;84.71
65207;SHT31;58477;48.072;11.970;2023-04-15T13:05:51;8.03;84.09
65207;SHT31;58477;48.072;11.970;2023-04-15T13:08:16;8.00;84.63
65207;SHT31;58477;48.072;11.970;2023-04-15T13:10:42;8.00;84.16
65207;SHT31;58477;48.072;11.970;2023-04-15T13:13:07;7.95;84.30
65207;SHT31;58477;48.072;11.970;2023-04-15T13:15:33;7.90;83.79
65207;SHT31;58477;48.072;11.970;2023-04-15T13:17:59;7.83;84.22
65207;SHT31;58477;48.072;11.970;2023-04-15T13:20:25;7.87;83.16
65207;SHT31;58477;48.072;11.970;2023-04-15T13:22:52;7.84;82.49
65207;SHT31;58477;48.072;11.970;2023-04-15T13:25:18;7.77;82.42
65207;SHT31;58477;48.072;11.970;2023-04-15T13:27:43;7.67;82.68
65207;SHT31;58477;48.072;11.970;2023-04-15T13:30:09;7.63;83.04
65207;SHT31;58477;48.072;11.970;2023-04-15T13:32:34;7.65;82.63
65207;SHT31;58477;48.072;11.970;2023-04-15T13:35:00;7.70;82.26
65207;SHT31;58477;48.072;11.970;2023-04-15T13:37:26;7.67;83.86
65207;SHT31;58477;48.072;11.970;2023-04-15T13:39:52;7.62;82.36
65207;SHT31;58477;48.072;11.970;2023-04-15T13:42:18;7.56;82.53
65207;SHT31;58477;48.072;11.970;2023-04-15T13:44:43;7.56;81.92
65207;SHT31;58477;48.072;11.970;2023-04-15T13:47:09;7.49;82.43
65207;SHT31;58477;48.072;11.970;2023-04-15T13:49:34;7.46;83.69
65207;SHT31;58477;48.072;11.970;2023-04-15T13:52:00;7.58;83.66
65207;SHT31;58477;48.072;11.970;2023-04-15T13:54:25;7.65;82.68
65207;SHT31;58477;48.072;11.970;2023-04-15T13:56:51;7.69;83.92
65207;SHT31;58477;48.072;11.970;2023-04-15T13:59:16;7.77;84.24
65207;SHT31;58477;48.072;11.970;2023-04-15T14:01:42;7.87;83.61
65207;SHT31;58477;48.072;11.970;2023-04-15T14:04:08;7.86;84.59
65207;SHT31;58477;48.072;11.970;2023-04-15T14:06:33;7.89;83.87
65207;SHT31;58477;48.072;11.970;2023-04-15T14:08:59;7.89;84.24
65207;SHT31;58477;48.072;11.970;2023-04-15T14:11:25;7.93;84.40
65207;SHT31;58477;48.072;11.970;2023-04-15T14:13:50;7.86;83.17
65207;SHT31;58477;48.072;11.970;2023-04-15T14:16:16;7.77;85.20
65207;SHT31;58477;48.072;11.970;2023-04-15T14:18:42;7.82;85.87
65207;SHT31;58477;48.072;11.970;2023-04-15T14:21:08;7.69;84.97
65207;SHT31;58477;48.072;11.970;2023-04-15T14:23:34;7.70;85.47
65207;SHT31;58477;48.072;11.970;2023-04-15T14:25:59;7.69;85.12
65207;SHT31;58477;48.072;11.970;2023-04-15T14:28:24;7.56;85.00
65207;SHT31;58477;48.072;11.970;2023-04-15T14:30:50;7.46;85.86
65207;SHT31;58477;48.072;11.970;2023-04-15T14:33:15;7.36;85.56
65207;SHT31;58477;48.072;11.970;2023-04-15T14:35:41;7.30;85.40
65207;SHT31;58477;48.072;11.970;2023-04-15T14:38:06;7.29;85.64
65207;SHT31;58477;48.072;11.970;2023-04-15T14:40:35;7.22;86.19
65207;SHT31;58477;48.072;11.970;2023-04-15T14:43:01;7.16;86.19
65207;SHT31;58477;48.072;11.970;2023-04-15T14:45:26;7.06;86.07
65207;SHT31;58477;48.072;11.970;2023-04-15T14:47:52;7.06;86.00
65207;SHT31;58477;48.072;11.970;2023-04-15T14:50:17;7.04;86.05
65207;SHT31;58477;48.072;11.970;2023-04-15T14:52:43;7.02;85.58
65207;SHT31;58477;48.072;11.970;2023-04-15T14:55:09;7.02;86.10
65207;SHT31;58477;48.072;11.970;2023-04-15T14:57:39;7.01;85.98
65207;SHT31;58477;48.072;11.970;2023-04-15T15:00:06;7.02;85.27
65207;SHT31;58477;48.072;11.970;2023-04-15T15:02:33;7.06;85.35
65207;SHT31;58477;48.072;11.970;2023-04-15T15:04:59;7.09;84.48
65207;SHT31;58477;48.072;11.970;2023-04-15T15:07:25;7.14;84.89
65207;SHT31;58477;48.072;11.970;2023-04-15T15:09:51;7.14;84.97
65207;SHT31;58477;48.072;11.970;2023-04-15T15:12:17;7.16;83.58
65207;SHT31;58477;48.072;11.970;2023-04-15T15:14:42;7.09;84.28
65207;SHT31;58477;48.072;11.970;2023-04-15T15:17:08;7.06;84.42
65207;SHT31;58477;48.072;11.970;2023-04-15T15:19:34;7.04;84.69
65207;SHT31;58477;48.072;11.970;2023-04-15T15:22:00;7.05;84.55
65207;SHT31;58477;48.072;11.970;2023-04-15T15:24:25;7.05;85.30
65207;SHT31;58477;48.072;11.970;2023-04-15T15:26:51;7.05;85.74
65207;SHT31;58477;48.072;11.970;2023-04-15T15:29:16;6.95;86.08
65207;SHT31;58477;48.072;11.970;2023-04-15T15:31:41;7.02;86.62
65207;SHT31;58477;48.072;11.970;2023-04-15T15:34:07;7.12;87.17
65207;SHT31;58477;48.072;11.970;2023-04-15T15:36:32;6.96;87.57
65207;SHT31;58477;48.072;11.970;2023-04-15T15:38:58;7.02;88.06